createdAt,value
2019-03-21T00:01:36.192Z,87.87
2019-03-21T00:04:11.198Z,92.23
2019-03-21T00:06:40.777Z,101.50
2019-03-21T00:09:12.502Z,92.20
2019-03-21T00:12:03.899Z,93.73
2019-03-21T00:15:12.231Z,88.00
2019-03-21T00:17:47.659Z,80.30
2019-03-21T00:20:17.915Z,85.37
2019-03-21T00:22:47.455Z,89.73
2019-03-21T00:25:19.569Z,89.57
2019-03-21T00:27:49.263Z,102.43
2019-03-21T00:30:20.501Z,83.57
2019-03-21T00:32:50.048Z,94.00
2019-03-21T00:35:19.636Z,96.37
2019-03-21T00:37:49.627Z,102.07
2019-03-21T00:40:22.653Z,85.93
2019-03-21T00:42:52.398Z,88.67
2019-03-21T00:45:21.972Z,90.50
2019-03-21T00:47:51.646Z,95.67
2019-03-21T00:50:22.474Z,90.07
2019-03-21T00:52:53.204Z,93.43
2019-03-21T00:55:23.123Z,78.80
2019-03-21T00:57:52.664Z,91.80
2019-03-21T01:00:25.350Z,87.23
2019-03-21T01:02:54.898Z,86.63
2019-03-21T01:05:24.484Z,104.40
2019-03-21T01:07:54.033Z,96.77
2019-03-21T01:10:24.415Z,103.87
2019-03-21T01:12:53.958Z,94.67
2019-03-21T01:15:23.497Z,96.20
2019-03-21T01:17:53.150Z,92.17
2019-03-21T01:20:22.692Z,106.27
2019-03-21T01:22:52.525Z,91.47
2019-03-21T01:25:28.391Z,104.43
2019-03-21T01:27:58.034Z,94.57
2019-03-21T01:30:27.637Z,107.50
2019-03-21T01:32:57.181Z,104.53
2019-03-21T01:35:26.734Z,114.97
2019-03-21T01:37:56.309Z,119.03
2019-03-21T01:40:26.536Z,103.63
2019-03-21T01:42:56.577Z,128.03
2019-03-21T01:45:26.216Z,105.90
2019-03-21T01:47:55.774Z,126.77
2019-03-21T01:50:25.389Z,119.10
2019-03-21T01:52:54.968Z,126.03
2019-03-21T01:55:24.511Z,113.17
2019-03-21T01:57:54.024Z,145.73
2019-03-21T02:00:26.546Z,109.27
2019-03-21T02:02:57.517Z,121.27
2019-03-21T02:05:27.209Z,124.70
2019-03-21T02:07:56.804Z,119.00
2019-03-21T02:10:26.493Z,121.30
2019-03-21T02:12:55.959Z,121.63
2019-03-21T02:15:25.654Z,121.60
2019-03-21T02:17:55.237Z,120.60
2019-03-21T02:20:24.782Z,118.90
2019-03-21T02:22:54.373Z,137.33
2019-03-21T02:25:25.893Z,138.03
2019-03-21T02:27:55.643Z,110.63
2019-03-21T02:30:27.883Z,137.43
2019-03-21T02:33:00.702Z,116.43
2019-03-21T02:35:31.114Z,138.23
2019-03-21T02:41:28.881Z,118.93
2019-03-21T02:43:58.452Z,98.53
2019-03-21T02:46:28.033Z,126.27
2019-03-21T02:48:57.735Z,162.13
2019-03-21T02:51:27.279Z,120.33
2019-03-21T02:53:56.859Z,150.97
2019-03-21T02:56:26.506Z,150.57
2019-03-21T02:58:56.378Z,143.27
2019-03-21T03:01:25.965Z,128.27
2019-03-21T03:03:56.008Z,136.83
2019-03-21T03:06:25.589Z,144.43
2019-03-21T03:08:55.075Z,145.13
2019-03-21T03:11:25.016Z,162.33
2019-03-21T03:13:54.602Z,154.57
2019-03-21T03:16:24.232Z,157.00
2019-03-21T03:18:54.349Z,150.47
2019-03-21T03:21:23.884Z,127.27
2019-03-21T03:23:53.362Z,122.37
2019-03-21T03:26:22.943Z,139.50
2019-03-21T03:28:52.572Z,136.80
2019-03-21T03:31:22.031Z,164.63
2019-03-21T03:33:51.579Z,137.53
2019-03-21T03:36:21.165Z,152.33
2019-03-21T03:38:50.747Z,147.90
2019-03-21T03:41:20.315Z,160.13
2019-03-21T03:43:49.850Z,130.87
2019-03-21T03:46:19.385Z,151.97
2019-03-21T03:48:48.968Z,173.30
2019-03-21T03:51:18.530Z,165.57
2019-03-21T03:53:48.172Z,130.07
2019-03-21T03:56:18.077Z,149.53
2019-03-21T03:58:48.791Z,134.23
2019-03-21T04:01:18.387Z,144.00
2019-03-21T04:03:48.181Z,119.33
2019-03-21T04:06:17.997Z,131.70
2019-03-21T04:08:47.543Z,161.27
2019-03-21T04:11:17.109Z,158.23
2019-03-21T04:13:46.731Z,132.33
2019-03-21T04:16:16.271Z,157.10
2019-03-21T04:18:45.865Z,175.93
2019-03-21T04:21:15.471Z,134.53
2019-03-21T04:23:45.311Z,149.20
2019-03-21T04:26:21.241Z,135.97
2019-03-21T04:28:50.859Z,152.23
2019-03-21T04:31:20.455Z,132.47
2019-03-21T04:33:50.328Z,163.47
2019-03-21T04:36:19.903Z,160.10
2019-03-21T04:38:49.569Z,148.93
2019-03-21T04:41:19.039Z,170.07
2019-03-21T04:43:48.619Z,140.27
2019-03-21T04:46:18.202Z,157.93
2019-03-21T04:48:47.711Z,158.10
2019-03-21T04:51:17.299Z,126.17
2019-03-21T04:53:46.909Z,130.53
2019-03-21T04:56:16.843Z,108.67
2019-03-21T04:58:46.313Z,167.07
2019-03-21T05:01:15.839Z,149.20
2019-03-21T05:03:45.376Z,96.63
2019-03-21T05:06:14.934Z,137.50
2019-03-21T05:08:44.520Z,148.53
2019-03-21T05:11:14.143Z,112.87
2019-03-21T05:13:43.734Z,115.03
2019-03-21T05:16:14.989Z,128.67
2019-03-21T05:18:45.412Z,104.83
2019-03-21T05:21:15.942Z,92.90
2019-03-21T05:23:45.538Z,110.37
2019-03-21T05:26:15.498Z,104.53
2019-03-21T05:28:45.043Z,162.07
2019-03-21T05:31:18.100Z,116.00
2019-03-21T05:33:47.800Z,135.60
2019-03-21T05:36:17.341Z,137.50
2019-03-21T05:38:46.915Z,114.77
2019-03-21T05:41:16.603Z,119.47
2019-03-21T05:43:59.103Z,129.13
2019-03-21T05:46:29.054Z,162.77
2019-03-21T05:48:58.600Z,151.93
2019-03-21T05:51:28.182Z,141.43
2019-03-21T05:53:57.724Z,123.83
2019-03-21T05:56:27.316Z,149.17
2019-03-21T05:58:56.905Z,116.80
2019-03-21T06:01:26.481Z,125.07
2019-03-21T06:03:56.071Z,143.13
2019-03-21T06:06:34.068Z,137.27
2019-03-21T06:09:04.803Z,133.27
2019-03-21T06:11:34.386Z,143.57
2019-03-21T06:14:04.503Z,140.23
2019-03-21T06:16:37.864Z,118.23
2019-03-21T06:19:30.109Z,125.83
2019-03-21T06:22:18.146Z,104.60
2019-03-21T06:25:10.658Z,111.37
2019-03-21T06:27:40.278Z,129.50
2019-03-21T06:30:11.400Z,129.57
2019-03-21T06:32:41.059Z,126.70
2019-03-21T06:35:21.508Z,99.37
2019-03-21T06:37:51.293Z,108.23
2019-03-21T06:40:20.891Z,94.97
2019-03-21T06:42:50.458Z,123.93
2019-03-21T06:45:19.936Z,98.27
2019-03-21T06:47:49.506Z,95.50
2019-03-21T06:50:18.969Z,90.97
2019-03-21T06:52:48.570Z,67.63
2019-03-21T06:55:18.198Z,76.73
2019-03-21T06:57:48.124Z,73.57
2019-03-21T07:00:17.713Z,52.77
2019-03-21T07:02:47.178Z,56.30
2019-03-21T07:05:16.758Z,62.27
2019-03-21T07:07:46.302Z,58.30
2019-03-21T07:10:16.082Z,59.03
2019-03-21T07:12:45.641Z,55.70
2019-03-21T07:15:15.325Z,58.13
2019-03-21T07:17:44.857Z,57.43
2019-03-21T07:20:14.450Z,54.80
2019-03-21T07:22:44.093Z,51.87
2019-03-21T07:25:13.772Z,58.37
2019-03-21T07:27:43.329Z,61.43
2019-03-21T07:30:14.196Z,58.70
2019-03-21T07:32:43.783Z,55.43
2019-03-21T07:35:13.576Z,50.50
2019-03-21T07:37:43.113Z,56.60
2019-03-21T07:40:13.198Z,66.43
2019-03-21T07:42:42.878Z,54.80
2019-03-21T07:45:12.947Z,64.13
2019-03-21T07:47:42.486Z,62.50
2019-03-21T07:50:12.399Z,64.90
2019-03-21T07:52:41.992Z,73.20
2019-03-21T07:55:11.913Z,66.70
2019-03-21T07:57:41.563Z,63.10
2019-03-21T08:00:12.674Z,67.90
2019-03-21T08:02:42.301Z,62.13
2019-03-21T08:05:12.258Z,70.53
2019-03-21T08:07:41.861Z,61.60
2019-03-21T08:10:11.675Z,72.67
2019-03-21T08:12:41.247Z,65.13
2019-03-21T08:15:11.620Z,70.90
2019-03-21T08:17:41.313Z,64.60
2019-03-21T08:20:11.447Z,69.70
2019-03-21T08:22:41.044Z,61.93
2019-03-21T08:25:10.848Z,63.20
2019-03-21T08:27:40.542Z,66.37
2019-03-21T08:30:16.111Z,56.97
2019-03-21T08:32:45.703Z,61.73
2019-03-21T08:35:15.249Z,64.43
2019-03-21T08:37:44.789Z,61.33
2019-03-21T08:40:14.784Z,64.80
2019-03-21T08:42:44.299Z,66.90
2019-03-21T08:45:14.189Z,62.77
2019-03-21T08:47:43.739Z,62.37
2019-03-21T08:50:13.379Z,64.23
2019-03-21T08:52:42.995Z,74.60
2019-03-21T08:55:12.685Z,66.53
2019-03-21T08:57:42.227Z,61.17
2019-03-21T09:00:11.945Z,70.53
2019-03-21T09:02:41.535Z,65.97
2019-03-21T09:05:11.091Z,67.33
2019-03-21T09:07:40.561Z,63.40
2019-03-21T09:10:10.575Z,59.80
2019-03-21T09:12:42.537Z,58.63
2019-03-21T09:15:11.637Z,59.53
2019-03-21T09:17:41.271Z,61.90
2019-03-21T09:20:11.239Z,58.87
2019-03-21T09:22:40.787Z,54.80
2019-03-21T09:25:10.632Z,63.10
2019-03-21T09:27:40.176Z,56.93
2019-03-21T09:30:10.277Z,55.20
2019-03-21T09:32:39.833Z,52.50
2019-03-21T09:35:12.351Z,55.03
2019-03-21T09:37:41.283Z,59.50
2019-03-21T09:40:11.157Z,57.63
2019-03-21T09:42:40.697Z,54.60
2019-03-21T09:45:10.322Z,57.33
2019-03-21T09:47:39.962Z,54.23
2019-03-21T09:50:09.782Z,55.10
2019-03-21T09:52:39.318Z,58.17
2019-03-21T09:55:08.953Z,57.17
2019-03-21T09:57:38.647Z,54.40
2019-03-21T10:00:08.673Z,52.77
2019-03-21T10:02:38.215Z,54.70
2019-03-21T10:05:08.258Z,51.07
2019-03-21T10:07:37.853Z,50.80
2019-03-21T10:10:07.420Z,57.10
2019-03-21T10:12:36.889Z,50.80
2019-03-21T10:15:06.651Z,52.93
2019-03-21T10:17:36.244Z,50.47
2019-03-21T10:20:06.368Z,51.03
2019-03-21T10:22:35.954Z,50.57
2019-03-21T10:25:05.818Z,54.77
2019-03-21T10:27:35.330Z,52.30
2019-03-21T10:30:05.739Z,55.53
2019-03-21T10:32:35.339Z,49.87
2019-03-21T10:35:05.842Z,53.13
2019-03-21T10:37:35.449Z,53.53
2019-03-21T10:40:05.527Z,53.10
2019-03-21T10:42:35.041Z,50.90
2019-03-21T10:45:05.325Z,52.20
2019-03-21T10:47:34.907Z,49.97
2019-03-21T10:50:05.336Z,50.10
2019-03-21T10:52:35.028Z,50.67
2019-03-21T10:55:04.944Z,47.03
2019-03-21T10:57:34.821Z,49.63
2019-03-21T11:00:05.927Z,49.10
2019-03-21T11:02:35.470Z,46.10
2019-03-21T11:05:05.655Z,51.40
2019-03-21T11:07:35.235Z,47.17
2019-03-21T11:10:05.557Z,48.40
2019-03-21T11:12:35.487Z,49.97
2019-03-21T11:15:05.369Z,52.00
2019-03-21T11:17:35.315Z,53.00
2019-03-21T11:20:05.105Z,50.37
2019-03-21T11:22:34.651Z,52.20
2019-03-21T11:25:04.486Z,53.10
2019-03-21T11:27:34.026Z,52.17
2019-03-21T11:30:11.750Z,50.83
2019-03-21T11:32:35.378Z,49.00
2019-03-21T11:35:05.159Z,51.37
2019-03-21T11:37:34.662Z,51.63
2019-03-21T11:40:04.319Z,49.57
2019-03-21T11:42:33.912Z,49.13
2019-03-21T11:45:03.469Z,53.17
2019-03-21T11:47:41.611Z,48.60
2019-03-21T11:50:05.175Z,50.00
2019-03-21T11:52:34.626Z,48.63
2019-03-21T11:55:04.654Z,47.43
2019-03-21T11:57:34.236Z,50.50
2019-03-21T12:00:04.252Z,50.30
2019-03-21T12:02:33.799Z,47.80
2019-03-21T12:05:03.312Z,48.27
2019-03-21T12:07:32.874Z,47.53
2019-03-21T12:10:02.476Z,46.57
2019-03-21T12:12:31.946Z,50.53
2019-03-21T12:15:01.453Z,49.80
2019-03-21T12:17:30.921Z,51.40
2019-03-21T12:20:00.622Z,48.10
2019-03-21T12:22:30.616Z,52.23
2019-03-21T12:25:00.342Z,46.97
2019-03-21T12:27:29.953Z,46.73
2019-03-21T12:29:59.838Z,50.07
2019-03-21T12:32:29.427Z,48.43
2019-03-21T12:34:58.976Z,47.10
2019-03-21T12:37:28.528Z,48.70
2019-03-21T12:39:58.120Z,49.90
2019-03-21T12:42:27.667Z,47.87
2019-03-21T12:44:57.255Z,46.97
2019-03-21T12:47:31.138Z,48.60
2019-03-21T12:49:58.119Z,44.87
2019-03-21T12:52:27.643Z,45.33
2019-03-21T12:54:57.202Z,46.53
2019-03-21T12:57:26.762Z,46.53
2019-03-21T12:59:56.341Z,47.00
2019-03-21T13:02:32.210Z,45.30
2019-03-21T13:04:57.202Z,49.50
2019-03-21T13:07:26.757Z,47.13
2019-03-21T13:09:56.446Z,46.37
2019-03-21T13:12:25.995Z,49.20
2019-03-21T13:14:55.591Z,48.77
2019-03-21T13:17:25.181Z,49.83
2019-03-21T13:19:54.702Z,49.03
2019-03-21T13:22:24.346Z,49.43
2019-03-21T13:24:53.864Z,48.47
2019-03-21T13:27:23.336Z,48.40
2019-03-21T13:29:52.918Z,49.33
2019-03-21T13:32:22.394Z,49.47
2019-03-21T13:34:52.277Z,50.47
2019-03-21T13:37:21.787Z,51.23
2019-03-21T13:39:51.263Z,55.20
2019-03-21T13:42:20.852Z,52.40
2019-03-21T13:44:51.463Z,60.83
2019-03-21T13:47:21.023Z,55.10
2019-03-21T13:49:50.634Z,56.87
2019-03-21T13:52:20.227Z,58.20
2019-03-21T13:54:49.851Z,52.77
2019-03-21T13:57:19.399Z,51.80
2019-03-21T13:59:48.968Z,54.67
2019-03-21T14:02:18.563Z,62.23
2019-03-21T14:04:48.538Z,63.87
2019-03-21T14:07:18.189Z,55.13
2019-03-21T14:09:47.739Z,53.37
2019-03-21T14:12:17.287Z,54.60
2019-03-21T14:14:46.875Z,61.03
2019-03-21T14:17:21.907Z,53.80
2019-03-21T14:19:48.039Z,51.73
2019-03-21T14:22:17.586Z,56.97
2019-03-21T14:24:47.169Z,56.63
2019-03-21T14:27:16.819Z,56.57
2019-03-21T14:29:46.408Z,56.50
2019-03-21T14:32:15.955Z,54.87
2019-03-21T14:34:45.534Z,64.73
2019-03-21T14:37:15.466Z,59.20
2019-03-21T14:39:45.012Z,60.77
2019-03-21T14:42:14.685Z,63.10
2019-03-21T14:44:44.242Z,58.70
2019-03-21T14:47:13.851Z,59.27
2019-03-21T14:49:43.393Z,60.33
2019-03-21T14:52:12.937Z,57.20
2019-03-21T14:54:42.624Z,61.20
2019-03-21T14:57:12.170Z,60.77
2019-03-21T14:59:41.760Z,58.60
2019-03-21T15:02:11.304Z,57.77
2019-03-21T15:04:41.258Z,56.77
2019-03-21T15:07:10.843Z,56.23
2019-03-21T15:09:40.468Z,61.27
2019-03-21T15:12:10.081Z,62.97
2019-03-21T15:14:39.976Z,68.43
2019-03-21T15:17:09.560Z,66.97
2019-03-21T15:19:39.449Z,57.83
2019-03-21T15:22:09.089Z,55.23
2019-03-21T15:24:38.631Z,64.97
2019-03-21T15:27:08.225Z,58.87
2019-03-21T15:29:37.767Z,63.60
2019-03-21T15:32:07.310Z,67.80
2019-03-21T15:34:36.902Z,65.10
2019-03-21T15:37:06.455Z,67.47
2019-03-21T15:39:36.046Z,71.97
2019-03-21T15:42:05.597Z,63.63
2019-03-21T15:44:35.076Z,70.10
2019-03-21T15:47:04.654Z,73.37
2019-03-21T15:49:34.240Z,67.30
2019-03-21T15:52:03.891Z,78.43
2019-03-21T15:54:33.485Z,70.47
2019-03-21T15:57:03.032Z,80.07
2019-03-21T15:59:32.581Z,77.80
2019-03-21T16:02:02.158Z,80.67
2019-03-21T16:04:31.792Z,74.93
2019-03-21T16:07:01.344Z,68.10
2019-03-21T16:09:30.936Z,69.13
2019-03-21T16:12:00.527Z,73.33
2019-03-21T16:14:30.025Z,66.80
2019-03-21T16:16:59.624Z,75.80
2019-03-21T16:19:29.923Z,91.83
2019-03-21T16:21:59.607Z,73.50
2019-03-21T16:24:29.196Z,80.57
2019-03-21T16:26:58.739Z,77.07
2019-03-21T16:29:30.256Z,74.00
2019-03-21T16:32:02.326Z,76.63
2019-03-21T16:34:31.118Z,69.63
2019-03-21T16:37:00.697Z,78.67
2019-03-21T16:39:30.281Z,64.87
2019-03-21T16:41:59.826Z,67.40
2019-03-21T16:44:29.345Z,85.53
2019-03-21T16:46:58.923Z,91.60
2019-03-21T16:49:30.798Z,92.40
2019-03-21T16:52:00.171Z,90.30
2019-03-21T16:54:30.375Z,103.43
2019-03-21T16:57:00.004Z,88.37
2019-03-21T16:59:29.543Z,99.57
2019-03-21T17:01:59.131Z,97.87
2019-03-21T17:04:28.684Z,94.40
2019-03-21T17:06:58.329Z,92.23
2019-03-21T17:09:27.878Z,112.57
2019-03-21T17:11:57.449Z,91.50
2019-03-21T17:14:26.914Z,97.67
2019-03-21T17:16:56.559Z,102.50
2019-03-21T17:19:26.133Z,105.20
2019-03-21T17:21:55.802Z,100.33
2019-03-21T17:24:29.628Z,94.57
2019-03-21T17:26:56.903Z,117.63
2019-03-21T17:29:26.604Z,91.30
2019-03-21T17:31:56.147Z,96.43
2019-03-21T17:34:25.703Z,99.83
2019-03-21T17:36:55.320Z,113.77
2019-03-21T17:39:25.248Z,107.40
2019-03-21T17:41:57.696Z,97.90
2019-03-21T17:44:27.652Z,126.80
2019-03-21T17:46:57.293Z,89.77
2019-03-21T17:49:26.901Z,103.17
2019-03-21T17:51:56.433Z,90.70
2019-03-21T17:54:25.983Z,112.23
2019-03-21T17:56:55.673Z,108.83
2019-03-21T17:59:25.281Z,107.03
2019-03-21T18:01:55.114Z,114.87
2019-03-21T18:04:24.763Z,124.40
2019-03-21T18:06:54.452Z,100.23
2019-03-21T18:09:23.994Z,114.47
2019-03-21T18:11:53.583Z,113.90
2019-03-21T18:14:23.142Z,112.10
2019-03-21T18:16:52.832Z,115.40
2019-03-21T18:19:22.419Z,108.77
2019-03-21T18:21:51.994Z,110.63
2019-03-21T18:24:21.586Z,107.97
2019-03-21T18:26:51.126Z,118.03
2019-03-21T18:29:20.667Z,113.17
2019-03-21T18:31:50.247Z,128.00
2019-03-21T18:34:19.849Z,107.63
2019-03-21T18:36:49.392Z,128.60
2019-03-21T18:39:18.934Z,105.57
2019-03-21T18:41:48.440Z,94.23
2019-03-21T18:44:17.983Z,108.20
2019-03-21T18:46:47.571Z,115.60
2019-03-21T18:49:17.137Z,100.40
2019-03-21T18:51:46.763Z,109.83
2019-03-21T18:54:16.315Z,108.00
2019-03-21T18:56:46.022Z,122.67
2019-03-21T18:59:15.649Z,102.93
2019-03-21T19:01:57.669Z,116.27
2019-03-21T19:04:16.515Z,107.83
2019-03-21T19:06:46.194Z,120.40
2019-03-21T19:09:15.749Z,117.13
2019-03-21T19:11:45.329Z,121.57
2019-03-21T19:14:15.449Z,115.07
2019-03-21T19:16:45.000Z,118.40
2019-03-21T19:19:14.535Z,125.83
2019-03-21T19:21:44.120Z,106.53
2019-03-21T19:24:13.685Z,97.40
2019-03-21T19:26:43.264Z,103.07
2019-03-21T19:29:14.977Z,112.37
2019-03-21T19:31:44.123Z,106.43
2019-03-21T19:34:13.703Z,115.67
2019-03-21T19:36:43.355Z,107.87
2019-03-21T19:39:12.982Z,127.77
2019-03-21T19:41:42.568Z,112.67
2019-03-21T19:44:12.109Z,128.27
2019-03-21T19:46:41.615Z,119.83
2019-03-21T19:49:11.480Z,114.47
2019-03-21T19:51:41.126Z,136.27
2019-03-21T19:54:10.799Z,153.40
2019-03-21T19:56:40.387Z,147.03
2019-03-21T19:59:09.959Z,159.50
2019-03-21T20:01:39.468Z,155.77
2019-03-21T20:04:09.065Z,137.93
2019-03-21T20:06:38.649Z,135.90
2019-03-21T20:09:08.776Z,113.37
2019-03-21T20:11:38.360Z,138.10
2019-03-21T20:14:07.979Z,171.37
2019-03-21T20:16:37.584Z,128.43
2019-03-21T20:19:07.129Z,119.80
2019-03-21T20:21:47.333Z,142.90
2019-03-21T20:24:08.130Z,116.97
2019-03-21T20:26:37.675Z,128.30
2019-03-21T20:29:07.263Z,120.77
2019-03-21T20:31:36.853Z,139.20
2019-03-21T20:34:06.457Z,153.37
2019-03-21T20:36:36.064Z,122.53
2019-03-21T20:39:07.874Z,124.60
2019-03-21T20:41:37.514Z,128.30
2019-03-21T20:44:15.180Z,133.20
2019-03-21T20:46:38.312Z,143.70
2019-03-21T20:49:08.150Z,143.63
2019-03-21T20:51:37.829Z,116.93
2019-03-21T20:54:07.479Z,118.00
2019-03-21T20:56:37.067Z,126.90
2019-03-21T20:59:06.709Z,124.37
2019-03-21T21:01:36.286Z,110.03
2019-03-21T21:04:05.876Z,105.80
2019-03-21T21:06:35.414Z,92.67
2019-03-21T21:09:07.043Z,79.07
2019-03-21T21:11:36.654Z,100.83
2019-03-21T21:14:06.200Z,104.63
2019-03-21T21:16:35.789Z,96.87
2019-03-21T21:19:05.356Z,93.33
2019-03-21T21:21:34.947Z,71.67
2019-03-21T21:24:04.846Z,87.13
2019-03-21T21:26:34.429Z,97.73
2019-03-21T21:29:04.071Z,95.20
2019-03-21T21:31:33.626Z,76.70
2019-03-21T21:34:03.145Z,95.83
2019-03-21T21:36:32.774Z,96.27
2019-03-21T21:39:02.310Z,90.90
2019-03-21T21:41:32.009Z,86.37
2019-03-21T21:44:01.483Z,95.90
2019-03-21T21:46:31.806Z,94.07
2019-03-21T21:49:01.348Z,103.37
2019-03-21T21:51:30.886Z,119.80
2019-03-21T21:54:00.577Z,113.30
2019-03-21T21:56:30.118Z,105.00
2019-03-21T21:58:59.667Z,102.90
2019-03-21T22:01:29.233Z,95.67
2019-03-21T22:04:04.659Z,106.43
2019-03-21T22:06:30.262Z,106.17
2019-03-21T22:08:59.932Z,123.13
2019-03-21T22:11:29.523Z,153.47
2019-03-21T22:13:59.073Z,137.50
2019-03-21T22:16:28.783Z,116.33
2019-03-21T22:18:58.622Z,104.30
2019-03-21T22:21:28.176Z,128.63
2019-03-21T22:23:57.757Z,147.10
2019-03-21T22:26:29.801Z,160.43
2019-03-21T22:28:58.708Z,98.73
2019-03-21T22:31:28.255Z,124.00
2019-03-21T22:33:57.841Z,138.50
2019-03-21T22:36:27.385Z,126.93
2019-03-21T22:38:56.926Z,131.37
2019-03-21T22:41:26.505Z,112.57
2019-03-21T22:43:56.379Z,217.10
2019-03-21T22:46:25.961Z,170.20
2019-03-21T22:48:55.479Z,215.37
2019-03-21T22:51:25.024Z,184.13
2019-03-21T22:53:54.891Z,174.87
2019-03-21T22:56:24.724Z,223.20
2019-03-21T22:58:54.239Z,196.33
2019-03-21T23:01:23.914Z,176.00
2019-03-21T23:03:53.494Z,108.83
2019-03-21T23:06:23.183Z,143.03
2019-03-21T23:08:53.066Z,177.97
2019-03-21T23:11:22.761Z,139.83
2019-03-21T23:13:52.343Z,117.20
2019-03-21T23:16:21.985Z,165.43
2019-03-21T23:18:51.578Z,169.30
2019-03-21T23:21:21.122Z,225.30
2019-03-21T23:23:50.672Z,297.30
2019-03-21T23:26:20.266Z,140.40
2019-03-21T23:28:49.911Z,107.97
2019-03-21T23:31:19.478Z,164.90
2019-03-21T23:33:49.162Z,218.43
2019-03-21T23:36:18.745Z,236.90
2019-03-21T23:38:48.289Z,162.57
2019-03-21T23:41:18.189Z,165.37
2019-03-21T23:43:47.734Z,151.47
2019-03-21T23:46:17.320Z,113.93
2019-03-21T23:48:46.862Z,126.43
2019-03-21T23:51:16.443Z,103.80
2019-03-21T23:53:46.365Z,119.07
2019-03-21T23:56:15.951Z,122.73
2019-03-21T23:58:45.495Z,111.33
